»·PEaware :: N6750H KSLC-KMYL

N6750H :: KSLC-KMYL

FLIGHT INFORMATION

Flight Status: Arrived
Operator: Privately registered:
United States
More flights under this callsign
Pilot: Yoel G. (22311)
Aircraft: Unknown
(DA62)
More flights by this aircraft type
Origin: KSLC Salt Lake City Intl
United States
Destination: KMYL McCall
United States
More flights between these airports :: More routes between these airports
Route: +SLC4 TCH V101 BYI V444 DERSO V293 SIDZY
File this flight plan on PilotEdge
Remarks:
Altitude:
(Current/Filed)
12,000ft
Speed:
(Current/Filed)
201kts
Departed: 06-Jan-19 08:54 PM
Arrived: 06-Jan-19 11:01 PM
Distance/Time
Traveled:
306nm/2:07
Distance/Time
To Go:
Arrived

Flight Plot

Page will automatically refresh every two minutes.

Flight plan parsing failed; only flown route is shown


Map Options




Map Legend


Flown Route
Filed Route
Departure Airport
Arrival Airport
Navaid (VOR, NDB)
Fix

Horizontal Profiles

Position Reports

Time Latitude Longitude Heading Altitude Ground
Speed
06-Jan-19 20:21 40.776346 -111.958715 180 4223ft 0kts
06-Jan-19 20:22 40.776346 -111.958715 180 4223ft 0kts
06-Jan-19 20:23 40.776346 -111.958715 180 4223ft 0kts
06-Jan-19 20:25 40.776346 -111.958715 180 4223ft 0kts
06-Jan-19 20:26 40.776346 -111.958715 180 4223ft 0kts
06-Jan-19 20:27 40.776346 -111.958715 180 4223ft 0kts
06-Jan-19 20:28 40.776346 -111.958715 180 4223ft 0kts
06-Jan-19 20:29 40.776346 -111.958715 180 4223ft 0kts
06-Jan-19 20:30 40.776346 -111.958715 180 4223ft 0kts
06-Jan-19 20:31 40.776346 -111.958715 180 4223ft 0kts
06-Jan-19 20:32 40.776346 -111.958715 180 4223ft 0kts
06-Jan-19 20:33 40.776346 -111.958715 180 4223ft 0kts
06-Jan-19 20:34 40.776346 -111.958715 180 4223ft 0kts
06-Jan-19 20:35 40.776346 -111.958715 180 4223ft 0kts
06-Jan-19 20:36 40.776346 -111.958715 180 4223ft 0kts
06-Jan-19 20:37 40.776346 -111.958715 180 4223ft 0kts
06-Jan-19 20:38 40.776346 -111.958715 180 4223ft 0kts
06-Jan-19 20:39 40.776346 -111.958715 180 4223ft 0kts
06-Jan-19 20:40 40.776346 -111.958715 180 4223ft 0kts
06-Jan-19 20:41 40.776346 -111.958715 180 4223ft 0kts
06-Jan-19 20:42 40.776346 -111.958715 180 4223ft 0kts
06-Jan-19 20:43 40.776346 -111.958715 180 4223ft 0kts
06-Jan-19 20:44 40.776346 -111.958715 180 4223ft 0kts
06-Jan-19 20:45 40.776346 -111.958715 180 4223ft 0kts
06-Jan-19 20:45 40.776346 -111.958715 180 4223ft 0kts
06-Jan-19 20:47 40.776346 -111.958715 180 4223ft 0kts
06-Jan-19 20:47 40.775977 -111.959592 260 4223ft 6kts
06-Jan-19 20:49 40.779651 -111.960023 0 4223ft 23kts
06-Jan-19 20:49 40.786568 -111.959983 358 4220ft 34kts
06-Jan-19 20:50 40.796655 -111.960019 0 4220ft 34kts
06-Jan-19 20:51 40.798858 -111.960514 278 4220ft 0kts
06-Jan-19 20:52 40.798868 -111.960929 268 4220ft 5kts
06-Jan-19 20:53 40.795865 -111.962064 180 4220ft 69kts
06-Jan-19 20:54 40.771360 -111.971986 259 5310ft 97kts
06-Jan-19 20:55 40.786845 -112.001966 305 6732ft 103kts
06-Jan-19 20:56 40.806102 -112.030128 305 8037ft 105kts
06-Jan-19 20:57 40.826111 -112.058299 305 9335ft 106kts
06-Jan-19 20:58 40.851663 -112.083888 340 10398ft 132kts
06-Jan-19 20:59 40.870907 -112.054787 72 11645ft 133kts
06-Jan-19 21:00 40.909764 -112.044199 16 11988ft 185kts
06-Jan-19 21:01 40.959760 -112.021540 344 11972ft 197kts
06-Jan-19 21:02 41.014712 -112.032156 341 11970ft 199kts
06-Jan-19 21:03 41.068809 -112.049699 340 11965ft 200kts
06-Jan-19 21:04 41.122314 -112.066464 339 11961ft 198kts
06-Jan-19 21:05 41.175748 -112.083181 339 11961ft 197kts
06-Jan-19 21:06 41.227022 -112.105120 314 11962ft 186kts
06-Jan-19 21:07 41.265341 -112.150782 309 11965ft 183kts
06-Jan-19 21:08 41.302385 -112.197465 309 11970ft 183kts
06-Jan-19 21:09 41.339220 -112.244188 309 11970ft 182kts
06-Jan-19 21:10 41.375839 -112.290735 309 11970ft 181kts
06-Jan-19 21:11 41.412374 -112.337258 308 11970ft 181kts
06-Jan-19 21:12 41.448786 -112.383698 308 11970ft 181kts
06-Jan-19 21:13 41.485288 -112.430330 309 11970ft 181kts
06-Jan-19 21:14 41.521813 -112.477045 309 11970ft 182kts
06-Jan-19 21:15 41.558498 -112.524047 308 11970ft 183kts
06-Jan-19 21:16 41.595297 -112.571295 308 11970ft 183kts
06-Jan-19 21:17 41.632127 -112.618652 308 11970ft 184kts
06-Jan-19 21:18 41.669079 -112.666246 308 11974ft 184kts
06-Jan-19 21:19 41.706191 -112.714133 308 11974ft 185kts
06-Jan-19 21:20 41.743310 -112.762105 308 11974ft 185kts
06-Jan-19 21:21 41.780547 -112.810310 308 11974ft 185kts
06-Jan-19 21:22 41.817727 -112.858518 307 11966ft 187kts
06-Jan-19 21:23 41.855429 -112.907501 307 11948ft 189kts
06-Jan-19 21:24 41.893576 -112.957145 307 11919ft 192kts
06-Jan-19 21:25 41.932124 -113.007399 307 11883ft 195kts
06-Jan-19 21:26 41.971320 -113.058588 307 11865ft 197kts
06-Jan-19 21:27 42.010526 -113.109877 307 11865ft 197kts
06-Jan-19 21:28 42.049946 -113.161542 307 11865ft 197kts
06-Jan-19 21:29 42.089152 -113.213024 307 11865ft 197kts
06-Jan-19 21:30 42.127911 -113.263982 307 11995ft 193kts
06-Jan-19 21:31 42.166545 -113.314919 307 11997ft 195kts
06-Jan-19 21:32 42.205539 -113.366395 307 11996ft 196kts
06-Jan-19 21:33 42.244543 -113.417980 307 11997ft 196kts
06-Jan-19 21:34 42.283425 -113.469503 307 11997ft 196kts
06-Jan-19 21:35 42.322486 -113.521358 307 11997ft 196kts
06-Jan-19 21:36 42.361335 -113.573028 307 11997ft 196kts
06-Jan-19 21:37 42.400251 -113.624876 307 11997ft 196kts
06-Jan-19 21:38 42.439135 -113.676778 306 12000ft 196kts
06-Jan-19 21:39 42.478000 -113.728757 306 12000ft 196kts
06-Jan-19 21:40 42.516910 -113.780892 306 12000ft 196kts
06-Jan-19 21:41 42.555826 -113.833136 306 12000ft 196kts
06-Jan-19 21:42 42.596783 -113.882844 314 12000ft 200kts
06-Jan-19 21:43 42.641137 -113.928922 314 12001ft 200kts
06-Jan-19 21:44 42.685426 -113.974842 314 12001ft 200kts
06-Jan-19 21:45 42.729884 -114.021014 314 12002ft 200kts
06-Jan-19 21:46 42.774224 -114.067146 314 12003ft 200kts
06-Jan-19 21:47 42.818406 -114.113202 314 12005ft 200kts
06-Jan-19 21:48 42.862771 -114.159534 314 12007ft 200kts
06-Jan-19 21:49 42.907112 -114.205940 314 12009ft 200kts
06-Jan-19 21:50 42.951395 -114.252364 314 12011ft 200kts
06-Jan-19 21:51 42.995497 -114.298680 315 12011ft 200kts
06-Jan-19 21:52 43.039623 -114.345109 315 12011ft 200kts
06-Jan-19 21:53 43.083637 -114.391496 315 12047ft 199kts
06-Jan-19 21:54 43.127452 -114.437810 315 12084ft 198kts
06-Jan-19 21:55 43.170607 -114.483517 315 12200ft 196kts
06-Jan-19 21:56 43.213967 -114.529532 315 12234ft 198kts
06-Jan-19 21:57 43.254232 -114.579127 286 12242ft 186kts
06-Jan-19 21:58 43.269729 -114.646054 278 12234ft 183kts
06-Jan-19 21:59 43.282890 -114.713867 277 12237ft 183kts
06-Jan-19 22:00 43.295716 -114.781447 277 12073ft 188kts
06-Jan-19 22:01 43.308716 -114.850167 277 12064ft 183kts
06-Jan-19 22:02 43.321445 -114.917831 276 12064ft 182kts
06-Jan-19 22:03 43.334083 -114.985185 276 12063ft 182kts
06-Jan-19 22:04 43.346707 -115.052668 276 12054ft 180kts
06-Jan-19 22:05 43.359162 -115.119101 279 12041ft 180kts
06-Jan-19 22:06 43.402792 -115.163656 321 12039ft 202kts
06-Jan-19 22:07 43.452187 -115.201016 321 12035ft 202kts
06-Jan-19 22:08 43.501544 -115.237900 321 12035ft 202kts
06-Jan-19 22:09 43.550958 -115.274835 321 12038ft 202kts
06-Jan-19 22:10 43.600354 -115.311823 321 12042ft 202kts
06-Jan-19 22:11 43.649842 -115.348947 321 12044ft 202kts
06-Jan-19 22:12 43.699055 -115.385935 321 12041ft 202kts
06-Jan-19 22:13 43.748646 -115.423278 321 12026ft 202kts
06-Jan-19 22:14 43.798138 -115.460615 321 12010ft 203kts
06-Jan-19 22:15 43.847678 -115.498063 321 12000ft 203kts
06-Jan-19 22:16 43.897051 -115.535452 321 12000ft 202kts
06-Jan-19 22:17 43.946556 -115.573014 321 12000ft 202kts
06-Jan-19 22:18 43.995947 -115.610561 321 12018ft 201kts
06-Jan-19 22:19 44.044728 -115.647724 321 12112ft 201kts
06-Jan-19 22:20 44.093964 -115.685293 320 12134ft 203kts
06-Jan-19 22:21 44.143237 -115.722958 320 12126ft 202kts
06-Jan-19 22:22 44.192504 -115.760705 320 12109ft 202kts
06-Jan-19 22:23 44.241972 -115.798672 320 12075ft 203kts
06-Jan-19 22:24 44.291435 -115.836708 320 12041ft 203kts
06-Jan-19 22:25 44.340925 -115.874837 320 12017ft 202kts
06-Jan-19 22:26 44.390294 -115.912950 320 12017ft 202kts
06-Jan-19 22:27 44.439465 -115.950925 322 12017ft 203kts
06-Jan-19 22:28 44.498764 -115.935175 13 12018ft 224kts
06-Jan-19 22:29 44.558318 -115.909116 13 12019ft 224kts
06-Jan-19 22:30 44.618169 -115.882891 13 12019ft 224kts
06-Jan-19 22:31 44.677810 -115.856772 13 12020ft 225kts
06-Jan-19 22:32 44.737606 -115.830566 13 12020ft 225kts
06-Jan-19 22:33 44.797378 -115.804338 13 12021ft 225kts
06-Jan-19 22:34 44.857306 -115.777999 13 12021ft 225kts
06-Jan-19 22:35 44.917076 -115.751705 13 12022ft 225kts
06-Jan-19 22:36 44.977004 -115.725272 13 12023ft 225kts
06-Jan-19 22:37 45.036840 -115.698225 13 12023ft 224kts
06-Jan-19 22:38 45.095676 -115.670752 13 12023ft 222kts
06-Jan-19 22:40 45.153759 -115.642910 13 12017ft 219kts
06-Jan-19 22:41 45.211477 -115.615068 13 12018ft 219kts
06-Jan-19 22:42 45.269351 -115.587102 12 12018ft 219kts
06-Jan-19 22:43 45.327067 -115.559181 12 12017ft 219kts
06-Jan-19 22:44 45.379872 -115.557236 286 11850ft 181kts
06-Jan-19 22:45 45.353112 -115.603647 216 11714ft 162kts
06-Jan-19 22:46 45.324415 -115.651280 236 11715ft 159kts
06-Jan-19 22:47 45.303476 -115.706961 240 11716ft 159kts
06-Jan-19 22:48 45.284002 -115.763504 241 11717ft 159kts
06-Jan-19 22:49 45.264756 -115.820284 241 11717ft 159kts
06-Jan-19 22:50 45.245534 -115.876918 241 11717ft 159kts
06-Jan-19 22:51 45.226425 -115.933166 241 11704ft 146kts
06-Jan-19 22:52 45.208801 -115.984908 237 10810ft 122kts
06-Jan-19 22:53 45.176795 -116.005882 199 10822ft 146kts
06-Jan-19 22:54 45.139050 -116.019296 197 10207ft 156kts
06-Jan-19 22:55 45.096497 -116.033813 195 9493ft 142kts
06-Jan-19 22:56 45.054663 -116.048340 194 8955ft 168kts
06-Jan-19 22:57 45.008067 -116.065182 193 7797ft 172kts
06-Jan-19 22:58 44.961938 -116.081863 192 6651ft 170kts
06-Jan-19 22:59 44.920533 -116.096839 190 5622ft 117kts
06-Jan-19 22:59 44.897415 -116.102029 175 5078ft 71kts
06-Jan-19 23:01 44.887687 -116.101076 47 5015ft 7kts
06-Jan-19 23:02 44.893226 -116.101152 0 5021ft 44kts
06-Jan-19 23:02 44.896855 -116.099294 100 5032ft 16kts

Navigation Log

Ident Type
Flight plan parsing failed, navigation log unavailable